LOC: 25.07.2016 16:54:29
UTC: 25.07.2016 13:54:29
ilmateenistus.ee keskkonnaagentuur.ee
EETN Tallinn
FTEO31 EETN 251100
TAF EETN 251123Z 2512/2612 34010KT 9999 SCT030 PROB40 TEMPO 2512/2516
    SCT025CB BECMG 2518/2520 VRB02KT PROB40 TEMPO 2522/2605 0700 BCFG
    BKN002 BECMG 2606/2608 08010KT SCT020CB TEMPO 2608/2612 4000 SHRA
    BKN010 BKN015CB PROB40 TEMPO 2608/2612 TSRA=

METAR EETN 251350Z 33007KT 290V010 9999 FEW030 22/16 Q1018 NOSIG=
Tallinn
EEKA Kärdla
FCEO32 EETN 251100
TAF EEKA 251100Z 2512/2518 02006KT 9999 BKN025=

METAR EEKA 251350Z 02005KT 9999 SCT030 21/16 Q1019=
Kärdla
EEKE Kuressaare
METAR EEKE 251350Z 20006KT 160V250 9999 FEW030 23/17 Q1018=
Kuressaare
EEPU Pärnu
METAR EEPU 251250Z VRB02KT 9999 FEW035 26/16 Q1018=
Pärnu
EETU Tartu
FCEO32 EETN 251100
TAF EETU 251100Z 2512/2518 VRB03KT 9999 BKN025 TEMPO 2512/2518
    VRB20KT 4000 TSRA BKN010 BKN025CB=

METAR EETU 251350Z VRB02KT 9999 FEW037 27/17 Q1018=
Tartu

News

Duty Forecaster: 666 0932 aviamet@envir.ee